Weather at Calgary International Airport

Public forecast

Using degrees Celsius for public forecast. Weather courtesy of forecast.io.

Current aviation weather report (METAR) for Calgary International Airport

Report is more than 6 hours old.

2022/11/14 15:00 (retrieved 2 years ago)

CYYC 141500Z 33012KT 15SM BKN044 02/M04 A3026 RMK SC7 SLP300

Aviation forecast (TAF) for Calgary International Airport

Forecast is more than 12 hours old.

2023/02/22 18:42 (retrieved 1 year ago)

TAF CYYC 221740Z 2218/2318 05006KT 4SM -SN OVC020 TEMPO 2218/2224 P6SM -SN OVC040 FM230000 04010KT P6SM OVC040 TEMPO 2300/2318 5SM -SN OVC020 RMK NXT FCST BY 222100Z